Time;durP1;ratioP1;P1;durP2;ratioP2;P2;SDS_P1;SDS_P2;PMS_P1;PMS_P2;Temp;Humidity;BMP_temperature;BMP_pressure;BME280_temperature;BME280_humidity;BME280_pressure;Samples;Min_cycle;Max_cycle;Signal;HPM_P1;HPM_P2
2021/07/19 00:01:56;;;;;;;6.77;4.97;;;19.00;99.90;;;;;;5098518;28;20417;-81
2021/07/19 00:04:22;;;;;;;4.30;3.90;;;18.90;99.90;;;;;;5071242;28;20439;-83
2021/07/19 00:06:47;;;;;;;5.10;4.60;;;18.90;99.90;;;;;;5081340;28;20514;-83
2021/07/19 00:09:15;;;;;;;5.37;4.87;;;18.90;99.90;;;;;;5071029;28;20430;-84
2021/07/19 00:11:42;;;;;;;5.17;4.17;;;18.80;99.90;;;;;;5081406;28;20196;-82
2021/07/19 00:14:08;;;;;;;6.23;4.83;;;18.80;99.90;;;;;;5098582;28;20410;-84
2021/07/19 00:16:34;;;;;;;6.10;4.73;;;18.80;99.90;;;;;;5098256;28;20441;-84
2021/07/19 00:19:00;;;;;;;6.77;4.37;;;18.60;99.90;;;;;;5048661;28;20416;-81
2021/07/19 00:21:26;;;;;;;5.93;4.80;;;18.60;99.90;;;;;;5082173;28;20757;-81
2021/07/19 00:23:52;;;;;;;7.17;5.00;;;18.60;99.90;;;;;;5099586;28;20426;-81
2021/07/19 00:26:20;;;;;;;5.47;4.30;;;18.50;99.90;;;;;;5082031;28;20228;-83
2021/07/19 00:28:47;;;;;;;8.50;4.80;;;18.50;99.90;;;;;;5066300;28;20779;-79
2021/07/19 00:31:13;;;;;;;8.20;4.60;;;18.50;99.90;;;;;;5063312;28;20490;-81
2021/07/19 00:33:39;;;;;;;5.97;4.27;;;18.40;99.90;;;;;;5096023;28;20431;-83
2021/07/19 00:36:05;;;;;;;6.90;3.93;;;18.50;99.90;;;;;;5082116;28;20867;-82
2021/07/19 00:38:31;;;;;;;4.60;4.20;;;18.40;99.90;;;;;;5099285;28;20185;-82
2021/07/19 00:40:57;;;;;;;5.33;4.20;;;18.40;99.90;;;;;;5098271;28;20418;-82
2021/07/19 00:43:22;;;;;;;4.80;4.30;;;18.40;99.90;;;;;;5098128;28;20196;-81
2021/07/19 00:45:48;;;;;;;5.50;4.77;;;18.40;99.90;;;;;;5097367;28;20838;-83
2021/07/19 00:48:15;;;;;;;9.53;4.70;;;18.30;99.90;;;;;;5088940;28;20180;-82
2021/07/19 00:50:41;;;;;;;5.27;4.33;;;18.30;99.90;;;;;;5072329;28;20192;-83
2021/07/19 00:53:08;;;;;;;5.83;4.67;;;18.20;99.90;;;;;;5078660;28;20450;-83
2021/07/19 00:55:42;;;;;;;5.00;4.60;;;18.20;99.90;;;;;;5098064;28;20227;-84
2021/07/19 00:58:10;;;;;;;5.47;4.53;;;18.10;99.90;;;;;;5098213;28;20417;-82
2021/07/19 01:00:39;;;;;;;5.97;4.37;;;18.00;99.90;;;;;;5080230;28;20441;-82
2021/07/19 01:03:05;;;;;;;6.67;4.70;;;18.00;99.90;;;;;;5094199;28;20423;-82
2021/07/19 01:05:32;;;;;;;10.40;4.73;;;18.00;99.90;;;;;;5095932;28;20512;-84
2021/07/19 01:07:59;;;;;;;5.70;4.33;;;18.10;99.90;;;;;;5098203;28;20423;-82
2021/07/19 01:10:25;;;;;;;5.20;4.47;;;18.10;99.90;;;;;;5097594;28;20418;-82
2021/07/19 01:12:53;;;;;;;6.07;4.30;;;18.10;99.90;;;;;;5076978;28;20449;-79
2021/07/19 01:15:21;;;;;;;9.47;4.40;;;18.00;99.90;;;;;;5096499;28;20218;-83
2021/07/19 01:17:47;;;;;;;6.17;4.60;;;18.00;99.90;;;;;;5060884;28;20422;-83
2021/07/19 01:20:13;;;;;;;6.40;4.60;;;18.10;99.90;;;;;;5067938;28;20786;-81
2021/07/19 01:23:16;;;;;;;5.20;4.23;;;18.10;99.90;;;;;;5076913;28;20424;-82
2021/07/19 01:25:45;;;;;;;5.50;4.60;;;18.00;99.90;;;;;;5095249;28;20207;-84
2021/07/19 01:28:42;;;;;;;5.50;4.17;;;17.90;99.90;;;;;;5085246;28;20439;-84
2021/07/19 01:31:13;;;;;;;7.87;5.03;;;17.90;99.90;;;;;;5096702;28;20463;-82
2021/07/19 01:33:43;;;;;;;5.20;4.70;;;17.80;99.90;;;;;;5098581;28;20418;-82
2021/07/19 01:36:11;;;;;;;8.50;4.60;;;17.70;99.90;;;;;;5097400;28;20474;-84
2021/07/19 01:38:37;;;;;;;5.30;4.53;;;17.70;99.90;;;;;;5096221;28;20479;-84
2021/07/19 01:41:03;;;;;;;8.60;5.83;;;17.70;99.90;;;;;;5096459;28;20446;-82
2021/07/19 01:43:29;;;;;;;6.73;4.00;;;17.70;99.90;;;;;;5049423;28;20811;-84
2021/07/19 01:45:56;;;;;;;7.43;5.40;;;17.70;99.90;;;;;;5094516;28;20487;-80
2021/07/19 01:48:23;;;;;;;6.63;5.03;;;17.60;99.90;;;;;;5042107;28;20784;-83
2021/07/19 01:50:49;;;;;;;5.03;4.53;;;17.50;99.90;;;;;;5072057;28;20427;-80
2021/07/19 01:53:16;;;;;;;4.80;4.40;;;17.40;99.90;;;;;;5095445;28;20431;-84
2021/07/19 01:55:43;;;;;;;5.40;4.50;;;17.40;99.90;;;;;;5075403;28;20565;-80
2021/07/19 01:58:10;;;;;;;6.03;4.73;;;17.40;99.90;;;;;;5056945;28;20431;-82
2021/07/19 02:00:36;;;;;;;21.63;5.93;;;17.40;99.90;;;;;;5086252;28;20445;-80
2021/07/19 02:03:02;;;;;;;5.93;5.27;;;17.50;99.90;;;;;;5094812;28;20514;-80
2021/07/19 02:05:28;;;;;;;6.93;4.67;;;17.40;99.90;;;;;;5061496;28;20204;-79
2021/07/19 02:07:56;;;;;;;6.63;5.30;;;17.40;99.90;;;;;;5078920;28;20192;-83
2021/07/19 02:10:22;;;;;;;5.50;4.53;;;17.20;99.90;;;;;;5096122;28;20552;-80
2021/07/19 02:12:49;;;;;;;7.33;4.63;;;17.20;99.90;;;;;;5072296;28;20486;-80
2021/07/19 02:15:17;;;;;;;5.20;4.63;;;17.10;99.90;;;;;;5070665;28;20443;-81
2021/07/19 02:17:52;;;;;;;7.37;5.20;;;17.10;99.90;;;;;;5075439;28;20439;-81
2021/07/19 02:20:18;;;;;;;6.40;5.00;;;17.10;99.90;;;;;;5063989;28;20442;-83
2021/07/19 02:22:46;;;;;;;9.40;5.13;;;17.10;99.90;;;;;;5057805;28;20411;-82
2021/07/19 02:25:13;;;;;;;7.83;5.43;;;17.00;99.90;;;;;;5089427;28;20776;-83
2021/07/19 02:27:43;;;;;;;5.93;5.10;;;17.10;99.90;;;;;;5062900;28;20423;-82
2021/07/19 02:30:12;;;;;;;8.33;5.63;;;17.00;99.90;;;;;;5091377;28;20988;-81
2021/07/19 02:32:44;;;;;;;6.17;5.57;;;17.00;99.90;;;;;;5094798;28;20458;-81
2021/07/19 02:35:11;;;;;;;5.83;4.53;;;16.80;99.90;;;;;;5094566;28;20446;-80
2021/07/19 02:37:38;;;;;;;6.40;4.80;;;16.80;99.90;;;;;;5077666;28;20445;-80
2021/07/19 02:40:09;;;;;;;6.93;5.27;;;16.80;99.90;;;;;;5054401;28;20419;-80
2021/07/19 02:42:40;;;;;;;7.30;4.97;;;16.90;99.90;;;;;;5077530;28;20529;-83
2021/07/19 02:45:09;;;;;;;6.87;5.60;;;16.90;99.90;;;;;;5077724;28;20881;-80
2021/07/19 02:47:35;;;;;;;7.80;5.43;;;17.00;99.90;;;;;;5073127;28;20438;-81
2021/07/19 02:50:04;;;;;;;16.23;5.37;;;17.00;99.90;;;;;;5067017;28;20423;-83
2021/07/19 02:52:30;;;;;;;6.10;5.50;;;17.00;99.90;;;;;;5094265;28;20458;-83
2021/07/19 02:54:57;;;;;;;7.57;5.43;;;17.00;99.90;;;;;;5093725;28;20452;-80
2021/07/19 02:57:22;;;;;;;7.67;6.33;;;17.00;99.90;;;;;;5073748;28;20511;-81
2021/07/19 02:59:48;;;;;;;7.70;5.47;;;17.10;99.90;;;;;;5053930;28;20436;-82
2021/07/19 03:02:17;;;;;;;8.10;6.60;;;17.10;99.90;;;;;;5084549;28;20653;-83
2021/07/19 03:04:44;;;;;;;10.03;5.90;;;17.10;99.90;;;;;;5048276;28;21205;-81
2021/07/19 03:07:11;;;;;;;6.00;5.30;;;17.10;99.90;;;;;;5076274;28;20808;-81
2021/07/19 03:09:40;;;;;;;8.60;6.30;;;17.20;99.90;;;;;;5063498;28;20426;-81
2021/07/19 03:12:07;;;;;;;8.30;6.20;;;17.20;99.90;;;;;;5077878;28;20454;-83
2021/07/19 03:14:35;;;;;;;8.30;6.13;;;17.10;99.90;;;;;;5094336;28;20458;-79
2021/07/19 03:17:02;;;;;;;6.70;5.73;;;17.00;99.90;;;;;;5071881;28;20436;-83
2021/07/19 03:19:30;;;;;;;6.90;5.37;;;17.00;99.90;;;;;;5091945;28;20911;-79
2021/07/19 03:21:59;;;;;;;7.00;6.20;;;17.00;99.90;;;;;;5093377;28;20431;-80
2021/07/19 03:24:28;;;;;;;6.93;6.13;;;16.90;99.90;;;;;;5093470;28;20450;-79
2021/07/19 03:26:54;;;;;;;10.20;6.80;;;16.90;99.90;;;;;;5059332;28;20426;-81
2021/07/19 03:29:21;;;;;;;9.03;6.83;;;16.90;99.90;;;;;;5094116;28;20422;-83
2021/07/19 03:31:48;;;;;;;8.37;6.23;;;16.90;99.90;;;;;;5074398;28;20469;-83
2021/07/19 03:34:14;;;;;;;8.33;5.97;;;16.80;99.90;;;;;;5067184;28;20948;-81
2021/07/19 03:36:40;;;;;;;7.70;6.13;;;16.80;99.90;;;;;;5056322;28;20429;-83
2021/07/19 03:39:07;;;;;;;9.20;7.33;;;16.90;99.90;;;;;;5093088;28;20642;-82
2021/07/19 03:41:34;;;;;;;9.03;6.40;;;17.00;99.90;;;;;;5093727;28;20430;-83
2021/07/19 03:44:01;;;;;;;7.67;6.87;;;17.00;99.90;;;;;;5093079;28;20430;-80
2021/07/19 03:46:28;;;;;;;10.03;7.00;;;17.00;99.90;;;;;;5093808;28;20442;-82
2021/07/19 03:48:54;;;;;;;8.67;6.97;;;17.00;99.90;;;;;;5068224;28;21007;-81
2021/07/19 03:51:21;;;;;;;10.20;7.63;;;17.00;99.90;;;;;;5083270;28;20466;-83
2021/07/19 03:53:46;;;;;;;10.60;6.67;;;17.00;99.90;;;;;;5094602;28;20407;-81
2021/07/19 03:56:13;;;;;;;10.53;7.53;;;17.00;99.90;;;;;;5059187;28;20512;-81
2021/07/19 03:58:39;;;;;;;10.17;7.03;;;17.10;99.90;;;;;;5065226;28;20184;-83
2021/07/19 04:01:05;;;;;;;8.30;7.03;;;17.10;99.90;;;;;;5089990;28;20765;-82
2021/07/19 04:03:44;;;;;;;8.70;7.40;;;17.20;99.90;;;;;;5090184;28;20218;-81
2021/07/19 04:06:16;;;;;;;11.00;8.03;;;17.10;99.90;;;;;;5066740;28;20435;-79
2021/07/19 04:08:42;;;;;;;8.77;7.80;;;17.10;99.90;;;;;;5087233;28;20407;-80
2021/07/19 04:11:08;;;;;;;11.50;7.27;;;17.10;99.90;;;;;;5076684;28;20418;-83
2021/07/19 04:13:37;;;;;;;7.20;6.50;;;17.10;99.90;;;;;;5076473;28;20751;-80
2021/07/19 04:16:04;;;;;;;9.67;7.60;;;17.10;99.90;;;;;;5092894;28;20438;-80
2021/07/19 04:18:31;;;;;;;8.80;7.00;;;17.00;99.90;;;;;;5072698;28;20462;-82
2021/07/19 04:20:57;;;;;;;10.70;7.10;;;17.00;99.90;;;;;;5069785;28;20406;-83
2021/07/19 04:23:23;;;;;;;7.97;7.17;;;17.00;99.90;;;;;;5075668;28;20915;-80
2021/07/19 04:25:49;;;;;;;10.20;7.90;;;17.00;99.90;;;;;;5073012;28;20481;-82
2021/07/19 04:28:20;;;;;;;9.20;7.60;;;17.00;99.90;;;;;;5086365;28;20414;-84
2021/07/19 04:30:46;;;;;;;11.10;7.40;;;17.00;99.90;;;;;;5079741;28;20410;-83
2021/07/19 04:33:16;;;;;;;13.27;7.70;;;17.10;99.90;;;;;;5075627;28;20462;-82
2021/07/19 04:35:45;;;;;;;12.03;8.30;;;17.10;99.90;;;;;;5093440;28;20849;-83
2021/07/19 04:38:14;;;;;;;9.60;8.17;;;17.10;99.90;;;;;;5075799;28;20418;-83
2021/07/19 04:40:40;;;;;;;11.33;8.30;;;17.20;99.90;;;;;;5075554;28;20462;-82
2021/07/19 04:43:06;;;;;;;10.83;7.57;;;17.20;99.90;;;;;;5076639;28;20415;-81
2021/07/19 04:45:32;;;;;;;13.00;8.00;;;17.10;99.90;;;;;;5096244;28;20905;-82
2021/07/19 04:47:57;;;;;;;10.47;8.30;;;17.20;99.90;;;;;;5077577;28;20193;-81
2021/07/19 04:50:23;;;;;;;9.77;7.93;;;17.20;99.90;;;;;;5073297;28;20216;-82
2021/07/19 04:52:49;;;;;;;11.03;7.77;;;17.30;99.90;;;;;;5093977;28;20314;-80
2021/07/19 04:55:21;;;;;;;11.60;9.17;;;17.30;99.90;;;;;;5079190;28;20223;-81
2021/07/19 04:57:51;;;;;;;9.10;7.60;;;17.30;99.90;;;;;;5058692;28;20184;-82
2021/07/19 05:00:17;;;;;;;10.90;8.30;;;17.30;99.90;;;;;;5095715;28;20430;-81
2021/07/19 05:02:45;;;;;;;9.93;8.07;;;17.40;99.90;;;;;;5066391;28;20434;-81
2021/07/19 05:05:14;;;;;;;10.27;8.80;;;17.40;99.90;;;;;;5085482;28;20470;-84
2021/07/19 05:07:43;;;;;;;10.33;7.80;;;17.50;99.90;;;;;;5057740;28;21115;-82
2021/07/19 05:10:12;;;;;;;9.70;8.13;;;17.40;99.90;;;;;;5078301;28;20449;-84
2021/07/19 05:12:43;;;;;;;9.47;7.83;;;17.60;99.90;;;;;;5077874;28;20462;-80
2021/07/19 05:15:13;;;;;;;10.70;9.30;;;17.60;99.90;;;;;;5078345;28;20442;-82
2021/07/19 05:17:41;;;;;;;12.10;7.70;;;17.60;99.90;;;;;;5062454;28;20518;-82
2021/07/19 05:20:28;;;;;;;11.20;7.07;;;17.70;99.90;;;;;;5077064;28;20426;-82
2021/07/19 05:22:55;;;;;;;13.60;8.93;;;17.70;99.90;;;;;;5075700;28;20418;-81
2021/07/19 05:25:33;;;;;;;10.03;8.60;;;17.80;99.90;;;;;;5074722;28;20439;-82
2021/07/19 05:27:58;;;;;;;10.37;8.07;;;17.80;99.90;;;;;;5069843;28;20494;-80
2021/07/19 05:30:27;;;;;;;10.43;8.20;;;17.90;99.90;;;;;;5095234;28;20956;-81
2021/07/19 05:32:55;;;;;;;9.50;8.17;;;17.90;99.90;;;;;;5060806;28;20208;-82
2021/07/19 05:35:21;;;;;;;12.43;9.73;;;17.90;99.90;;;;;;5079227;28;20493;-80
2021/07/19 05:37:47;;;;;;;14.47;9.20;;;17.90;99.90;;;;;;5052443;28;20834;-82
2021/07/19 05:40:14;;;;;;;13.43;7.90;;;17.90;99.90;;;;;;5078826;28;20473;-83
2021/07/19 05:42:41;;;;;;;10.57;8.67;;;17.90;99.90;;;;;;5078197;28;20426;-83
2021/07/19 05:45:08;;;;;;;10.40;8.30;;;17.90;99.90;;;;;;5094853;28;20501;-79
2021/07/19 05:47:33;;;;;;;9.93;8.17;;;18.00;99.90;;;;;;5078015;28;20442;-80
2021/07/19 05:50:00;;;;;;;9.70;7.90;;;17.90;99.90;;;;;;5072120;28;20430;-82
2021/07/19 05:52:25;;;;;;;17.50;8.90;;;17.90;99.90;;;;;;5044102;28;20215;-83
2021/07/19 05:54:51;;;;;;;9.10;8.10;;;18.00;99.90;;;;;;5088163;28;20508;-79
2021/07/19 05:57:17;;;;;;;10.97;8.20;;;17.90;99.90;;;;;;5072846;28;20341;-79
2021/07/19 05:59:43;;;;;;;11.73;10.13;;;18.00;99.90;;;;;;5081704;28;20184;-83
2021/07/19 06:02:08;;;;;;;17.03;9.37;;;18.00;99.90;;;;;;5095365;28;20231;-81
2021/07/19 06:04:34;;;;;;;10.70;8.67;;;18.00;99.90;;;;;;5059962;28;20234;-80
2021/07/19 06:07:00;;;;;;;13.80;10.17;;;18.10;99.90;;;;;;5058127;28;20189;-79
2021/07/19 06:09:25;;;;;;;10.70;9.13;;;18.10;99.90;;;;;;5092833;28;20192;-80
2021/07/19 06:11:51;;;;;;;11.67;9.20;;;18.20;99.90;;;;;;5076881;28;20223;-79
2021/07/19 06:14:17;;;;;;;15.00;9.73;;;18.20;99.90;;;;;;5077048;28;20212;-83
2021/07/19 06:16:43;;;;;;;11.73;9.27;;;18.20;99.90;;;;;;5074253;28;20219;-81
2021/07/19 06:19:09;;;;;;;13.07;9.87;;;18.20;99.90;;;;;;5057107;28;20909;-82
2021/07/19 06:21:34;;;;;;;11.37;9.27;;;18.30;99.90;;;;;;5077384;28;20195;-83
2021/07/19 06:24:00;;;;;;;12.63;9.90;;;18.30;99.90;;;;;;5057650;28;20952;-81
2021/07/19 06:26:26;;;;;;;14.40;9.30;;;18.30;99.90;;;;;;5081846;28;20201;-81
2021/07/19 06:28:51;;;;;;;12.53;8.50;;;18.20;99.90;;;;;;5068424;28;20193;-80
2021/07/19 06:31:17;;;;;;;11.57;10.07;;;18.30;99.90;;;;;;5084971;28;20224;-82
2021/07/19 06:33:43;;;;;;;16.23;10.00;;;18.30;99.90;;;;;;5059461;28;20247;-81
2021/07/19 06:36:08;;;;;;;11.60;9.77;;;18.40;99.90;;;;;;5060169;28;20243;-82
2021/07/19 06:38:34;;;;;;;14.10;9.50;;;18.50;99.90;;;;;;5062286;28;20208;-82
2021/07/19 06:41:00;;;;;;;11.53;8.67;;;18.50;99.90;;;;;;5057593;28;20246;-83
2021/07/19 06:43:25;;;;;;;12.50;8.50;;;18.50;99.90;;;;;;5053966;28;20292;-81
2021/07/19 06:45:51;;;;;;;11.67;8.27;;;18.60;99.90;;;;;;5078853;28;20212;-82
2021/07/19 06:48:17;;;;;;;12.70;9.00;;;18.60;99.90;;;;;;5073930;28;20181;-79
2021/07/19 06:50:43;;;;;;;10.20;8.40;;;18.60;99.90;;;;;;5090685;28;20193;-81
2021/07/19 06:53:09;;;;;;;12.47;8.87;;;18.70;99.90;;;;;;5070251;28;20459;-83
2021/07/19 06:55:35;;;;;;;13.57;8.83;;;18.60;99.90;;;;;;5076662;28;20223;-83
2021/07/19 06:58:00;;;;;;;12.70;8.63;;;18.70;99.90;;;;;;5062984;28;20947;-79
2021/07/19 07:00:26;;;;;;;12.40;8.70;;;18.70;99.90;;;;;;5076339;28;20196;-79
2021/07/19 07:02:52;;;;;;;11.77;8.73;;;18.60;99.90;;;;;;5075885;28;20212;-79
2021/07/19 07:05:17;;;;;;;10.20;8.73;;;18.60;99.90;;;;;;5087379;28;20208;-80
2021/07/19 07:07:44;;;;;;;12.53;9.37;;;18.70;99.90;;;;;;5075103;28;20195;-82
2021/07/19 07:10:10;;;;;;;12.37;9.07;;;18.60;99.90;;;;;;5073504;28;20251;-83
2021/07/19 07:12:39;;;;;;;11.37;8.70;;;18.60;99.90;;;;;;5073286;28;20455;-82
2021/07/19 07:15:05;;;;;;;15.23;8.90;;;18.70;99.90;;;;;;5066460;28;20447;-80
2021/07/19 07:17:31;;;;;;;9.20;7.80;;;18.70;99.90;;;;;;5065199;28;20415;-80
2021/07/19 07:19:57;;;;;;;10.80;8.67;;;18.70;99.90;;;;;;5073145;28;20445;-80
2021/07/19 07:22:23;;;;;;;10.60;8.87;;;18.60;99.90;;;;;;5043246;28;20180;-80
2021/07/19 07:24:49;;;;;;;9.70;7.67;;;18.60;99.90;;;;;;5076771;28;20449;-82
2021/07/19 07:27:17;;;;;;;9.40;8.00;;;18.60;99.90;;;;;;5092538;28;20242;-81
2021/07/19 07:29:42;;;;;;;9.50;8.50;;;18.60;99.90;;;;;;5054196;28;20438;-80
2021/07/19 07:32:08;;;;;;;13.87;8.30;;;18.60;99.90;;;;;;5048439;28;20450;-83
2021/07/19 07:34:34;;;;;;;11.77;8.73;;;18.60;99.90;;;;;;5091552;28;20832;-83
2021/07/19 07:37:00;;;;;;;13.53;9.77;;;18.60;99.90;;;;;;5082580;28;20185;-80
2021/07/19 07:39:25;;;;;;;10.70;8.50;;;18.70;99.90;;;;;;5060470;28;21006;-80
2021/07/19 07:41:51;;;;;;;11.47;8.40;;;18.70;99.90;;;;;;5042130;28;20195;-79
2021/07/19 07:44:17;;;;;;;12.70;9.23;;;18.70;99.90;;;;;;5076728;28;20189;-82
2021/07/19 07:46:43;;;;;;;10.10;8.13;;;18.70;99.90;;;;;;5093553;28;20191;-82
2021/07/19 07:49:09;;;;;;;10.83;8.17;;;18.60;99.90;;;;;;5074091;28;20197;-82
2021/07/19 07:51:35;;;;;;;13.27;9.47;;;18.70;99.90;;;;;;5093197;28;20550;-81
2021/07/19 07:54:00;;;;;;;10.00;8.43;;;18.70;99.90;;;;;;5081679;28;20940;-81
2021/07/19 07:56:27;;;;;;;12.60;8.60;;;18.80;99.90;;;;;;5091349;28;20303;-83
2021/07/19 07:58:53;;;;;;;12.23;8.47;;;18.90;99.90;;;;;;5093210;28;20253;-81
2021/07/19 08:01:19;;;;;;;11.20;9.03;;;18.90;99.90;;;;;;5092972;28;20426;-83
2021/07/19 08:03:45;;;;;;;10.93;8.50;;;18.90;99.90;;;;;;5089211;28;20197;-84
2021/07/19 08:06:11;;;;;;;11.43;8.97;;;18.90;99.90;;;;;;5074654;28;20208;-82
2021/07/19 08:08:37;;;;;;;10.47;8.83;;;19.00;99.90;;;;;;5074588;28;20185;-82
2021/07/19 08:11:05;;;;;;;11.10;8.00;;;19.00;99.90;;;;;;5073941;28;20694;-80
2021/07/19 08:13:30;;;;;;;11.33;8.40;;;19.00;99.90;;;;;;5094999;28;20185;-80
2021/07/19 08:15:56;;;;;;;10.47;8.13;;;19.00;99.90;;;;;;5043430;28;20492;-81
2021/07/19 08:18:22;;;;;;;12.17;8.60;;;19.00;99.90;;;;;;5087015;28;20180;-81
2021/07/19 08:20:48;;;;;;;11.47;9.00;;;19.10;99.90;;;;;;5081800;28;20927;-80
2021/07/19 08:23:14;;;;;;;11.07;9.20;;;19.10;99.90;;;;;;5081711;28;20552;-82
2021/07/19 08:25:40;;;;;;;10.97;8.90;;;19.20;99.90;;;;;;5099288;28;20441;-81
2021/07/19 08:28:06;;;;;;;10.20;8.33;;;19.20;99.90;;;;;;5077601;28;20419;-80
2021/07/19 08:30:33;;;;;;;11.00;8.70;;;19.30;99.90;;;;;;5097953;28;20185;-82
2021/07/19 08:32:58;;;;;;;12.77;9.87;;;19.30;99.90;;;;;;5097467;28;20490;-82
2021/07/19 08:35:25;;;;;;;12.13;9.40;;;19.30;99.90;;;;;;5061857;28;20508;-82
2021/07/19 08:37:52;;;;;;;14.10;9.90;;;19.30;99.90;;;;;;5070763;28;20398;-81
2021/07/19 08:40:20;;;;;;;11.50;9.33;;;19.30;99.90;;;;;;5081479;28;20518;-81
2021/07/19 08:42:47;;;;;;;11.27;8.70;;;19.30;99.90;;;;;;5077815;28;20427;-81
2021/07/19 08:45:13;;;;;;;18.53;9.70;;;19.30;99.90;;;;;;5080126;28;20857;-81
2021/07/19 08:47:41;;;;;;;11.33;9.20;;;19.20;99.90;;;;;;5097612;28;20443;-81
2021/07/19 08:50:08;;;;;;;11.80;8.90;;;19.20;99.90;;;;;;5097822;28;20437;-82
2021/07/19 08:52:34;;;;;;;14.03;9.87;;;19.20;99.90;;;;;;5096678;28;20450;-82
2021/07/19 08:55:03;;;;;;;14.70;9.90;;;19.10;99.90;;;;;;5096457;28;20536;-81
2021/07/19 08:57:29;;;;;;;11.20;8.73;;;19.00;99.90;;;;;;5096653;28;20858;-80
2021/07/19 08:59:58;;;;;;;9.17;8.20;;;19.00;99.90;;;;;;5095833;28;20745;-81
2021/07/19 09:02:24;;;;;;;11.90;8.53;;;19.00;99.90;;;;;;5081326;28;20968;-80
2021/07/19 09:04:49;;;;;;;10.73;8.70;;;19.00;99.90;;;;;;5079410;28;20458;-80
2021/07/19 09:07:17;;;;;;;11.80;8.33;;;19.10;99.90;;;;;;5081200;28;20184;-80
2021/07/19 09:09:43;;;;;;;10.03;7.73;;;19.10;99.90;;;;;;5073570;28;20217;-82
2021/07/19 09:12:09;;;;;;;11.53;9.83;;;19.00;99.90;;;;;;5091564;28;20488;-81
2021/07/19 09:14:38;;;;;;;11.10;9.07;;;19.10;99.90;;;;;;5077328;28;20432;-82
2021/07/19 09:17:04;;;;;;;11.67;9.10;;;19.00;99.90;;;;;;5096834;28;20403;-80
2021/07/19 09:19:30;;;;;;;10.90;9.80;;;19.00;99.90;;;;;;5094485;28;20505;-83
2021/07/19 09:22:02;;;;;;;10.60;9.10;;;19.10;99.90;;;;;;5092616;28;20177;-84
2021/07/19 09:24:32;;;;;;;13.53;9.97;;;19.20;99.90;;;;;;5092528;28;20509;-82
2021/07/19 09:26:59;;;;;;;10.17;8.90;;;19.30;99.90;;;;;;5099232;28;20537;-83
2021/07/19 09:29:25;;;;;;;11.20;9.87;;;19.40;99.90;;;;;;5097015;28;20908;-83
2021/07/19 09:31:56;;;;;;;11.53;9.43;;;19.50;99.90;;;;;;5079563;28;20480;-81
2021/07/19 09:34:28;;;;;;;13.13;10.30;;;19.60;99.90;;;;;;5058416;28;20472;-82
2021/07/19 09:37:03;;;;;;;14.13;10.27;;;19.60;99.90;;;;;;5063872;28;20418;-81
2021/07/19 09:39:39;;;;;;;10.87;8.67;;;19.50;99.90;;;;;;5098445;28;20421;-83
2021/07/19 09:42:09;;;;;;;11.17;9.40;;;19.50;99.90;;;;;;5085314;28;20426;-83
2021/07/19 09:44:35;;;;;;;12.87;9.80;;;19.30;99.90;;;;;;5097841;28;20434;-83
2021/07/19 09:47:03;;;;;;;12.27;9.63;;;19.30;99.90;;;;;;5098158;28;20431;-83
2021/07/19 09:49:31;;;;;;;12.43;9.43;;;19.30;99.90;;;;;;5077357;28;20526;-81
2021/07/19 09:52:06;;;;;;;14.03;10.00;;;19.20;99.90;;;;;;5098719;28;20451;-79
2021/07/19 09:54:35;;;;;;;12.93;9.87;;;19.30;99.90;;;;;;5096337;28;20466;-82
2021/07/19 09:57:01;;;;;;;12.80;9.80;;;19.30;99.90;;;;;;5097192;28;20426;-80
2021/07/19 09:59:27;;;;;;;13.30;9.30;;;19.30;99.90;;;;;;5097265;28;20472;-80
2021/07/19 10:01:53;;;;;;;10.33;9.10;;;19.30;99.90;;;;;;5098409;28;20974;-79
2021/07/19 10:04:19;;;;;;;11.33;8.60;;;19.30;99.90;;;;;;5096008;28;20439;-80
2021/07/19 10:06:46;;;;;;;11.90;9.90;;;19.30;99.90;;;;;;5069447;28;20423;-80
2021/07/19 10:09:13;;;;;;;9.87;8.70;;;19.30;99.90;;;;;;5072495;28;20426;-80
2021/07/19 10:11:47;;;;;;;14.70;9.80;;;19.40;99.90;;;;;;5060447;28;20459;-80
2021/07/19 10:14:23;;;;;;;14.23;10.13;;;19.30;99.90;;;;;;5096310;28;20437;-82
2021/07/19 10:16:50;;;;;;;12.23;10.03;;;19.30;99.90;;;;;;5076394;28;20427;-82
2021/07/19 10:19:16;;;;;;;13.67;10.10;;;19.30;99.90;;;;;;5078922;28;20455;-81
2021/07/19 10:21:42;;;;;;;11.00;9.67;;;19.30;99.90;;;;;;5095152;28;20802;-80
2021/07/19 10:24:09;;;;;;;15.00;11.47;;;19.30;99.90;;;;;;5093527;28;20570;-79
2021/07/19 10:26:36;;;;;;;14.77;11.17;;;19.20;99.90;;;;;;5096962;28;20494;-83
2021/07/19 10:29:06;;;;;;;16.83;10.60;;;19.10;99.90;;;;;;5072567;28;20431;-82
2021/07/19 10:31:33;;;;;;;12.60;9.70;;;19.00;99.90;;;;;;5089020;28;20450;-82
2021/07/19 10:34:00;;;;;;;14.80;10.07;;;19.10;99.90;;;;;;5095938;28;20415;-83
2021/07/19 10:36:47;;;;;;;14.27;8.77;;;19.10;99.90;;;;;;5092738;28;20491;-82
2021/07/19 10:39:23;;;;;;;17.27;10.93;;;19.20;99.90;;;;;;5094803;28;20486;-83
2021/07/19 10:42:07;;;;;;;12.60;9.73;;;19.20;99.90;;;;;;5078119;28;20417;-81
2021/07/19 10:44:35;;;;;;;16.47;11.37;;;19.20;99.90;;;;;;5095893;28;20513;-81
2021/07/19 10:47:26;;;;;;;12.73;9.70;;;19.30;99.90;;;;;;5087493;28;20997;-80
2021/07/19 10:49:56;;;;;;;14.60;8.80;;;19.30;99.90;;;;;;5079097;28;20947;-80
2021/07/19 10:52:39;;;;;;;11.43;8.87;;;19.40;99.90;;;;;;5090996;28;20527;-81
2021/07/19 10:55:10;;;;;;;14.33;9.47;;;19.60;99.90;;;;;;5089015;28;21157;-82
2021/07/19 10:57:36;;;;;;;13.83;9.90;;;19.70;99.90;;;;;;5095518;28;20407;-81
2021/07/19 11:00:09;;;;;;;13.27;10.27;;;19.70;99.90;;;;;;5096420;28;20471;-82
2021/07/19 11:02:34;;;;;;;12.47;10.00;;;19.80;99.90;;;;;;5058165;28;20430;-82
2021/07/19 11:05:00;;;;;;;14.67;10.77;;;20.00;99.90;;;;;;5093896;28;20457;-83
2021/07/19 11:07:26;;;;;;;15.70;10.90;;;20.00;99.90;;;;;;5075693;28;20216;-83
2021/07/19 11:09:53;;;;;;;13.10;10.80;;;20.10;99.90;;;;;;5062231;28;20654;-80
2021/07/19 11:12:20;;;;;;;12.30;10.63;;;20.20;99.90;;;;;;5093925;28;20492;-82
2021/07/19 11:14:51;;;;;;;14.30;10.90;;;20.10;99.90;;;;;;5092442;28;20430;-81
2021/07/19 11:17:19;;;;;;;13.10;10.97;;;20.10;99.90;;;;;;5062436;28;20418;-81
2021/07/19 11:19:48;;;;;;;14.03;11.33;;;20.10;99.90;;;;;;5077315;28;20470;-83
2021/07/19 11:22:26;;;;;;;16.97;11.30;;;20.10;99.90;;;;;;5076999;28;20444;-80
2021/07/19 11:25:06;;;;;;;20.63;11.13;;;20.10;99.90;;;;;;5091832;28;20430;-82
2021/07/19 11:27:33;;;;;;;13.20;10.87;;;20.20;99.90;;;;;;5083692;28;20414;-82
2021/07/19 11:30:19;;;;;;;15.90;11.30;;;20.20;99.90;;;;;;5078071;28;20421;-83
2021/07/19 11:32:44;;;;;;;16.80;11.20;;;20.20;99.90;;;;;;5094807;28;20457;-81
2021/07/19 11:35:21;;;;;;;13.50;10.50;;;20.30;99.90;;;;;;5059708;28;20457;-82
2021/07/19 11:37:49;;;;;;;13.23;11.83;;;20.40;99.90;;;;;;5095463;28;20172;-81
2021/07/19 11:40:31;;;;;;;15.30;11.70;;;20.50;99.90;;;;;;5071380;28;20424;-80
2021/07/19 11:43:30;;;;;;;14.50;11.20;;;20.60;99.90;;;;;;5089584;28;20425;-82
2021/07/19 11:45:57;;;;;;;12.10;10.80;;;20.60;99.90;;;;;;5088573;28;20446;-80
2021/07/19 11:48:23;;;;;;;13.87;10.83;;;20.60;99.90;;;;;;5061026;28;20422;-81
2021/07/19 11:50:55;;;;;;;15.37;11.13;;;20.60;99.90;;;;;;5093934;28;20426;-81
2021/07/19 11:53:21;;;;;;;18.30;11.97;;;20.50;99.90;;;;;;5070215;28;21039;-83
2021/07/19 11:55:47;;;;;;;14.13;12.17;;;20.40;99.90;;;;;;5077332;28;20489;-82
2021/07/19 11:58:14;;;;;;;14.40;11.37;;;20.30;99.90;;;;;;5061513;28;20436;-81
2021/07/19 12:00:41;;;;;;;14.30;10.43;;;20.30;99.90;;;;;;5078650;28;20168;-82
2021/07/19 12:03:17;;;;;;;13.50;10.83;;;20.40;99.90;;;;;;5094715;28;20418;-83
2021/07/19 12:05:50;;;;;;;13.73;11.47;;;20.50;99.90;;;;;;5087625;28;21025;-82
2021/07/19 12:08:23;;;;;;;13.57;11.13;;;20.60;99.90;;;;;;5047775;28;20446;-81
2021/07/19 12:10:50;;;;;;;12.27;10.47;;;20.60;99.90;;;;;;5093473;28;20410;-83
2021/07/19 12:13:16;;;;;;;17.03;11.00;;;20.60;99.90;;;;;;5073793;28;20768;-80
2021/07/19 12:15:54;;;;;;;13.63;10.73;;;20.60;99.90;;;;;;5094923;28;20465;-81
2021/07/19 12:18:39;;;;;;;11.43;10.17;;;20.60;99.90;;;;;;5096633;28;20505;-82
2021/07/19 12:21:17;;;;;;;12.57;11.23;;;20.60;99.90;;;;;;5085030;28;20869;-82
2021/07/19 12:23:47;;;;;;;12.70;10.47;;;20.70;99.90;;;;;;5089537;28;20429;-82
2021/07/19 12:26:22;;;;;;;12.07;10.67;;;20.70;99.90;;;;;;5086008;28;20437;-80
2021/07/19 12:29:07;;;;;;;14.10;11.20;;;20.70;99.90;;;;;;5073736;28;20421;-81
2021/07/19 12:31:35;;;;;;;12.53;11.20;;;20.80;99.90;;;;;;5071078;28;20453;-82
2021/07/19 12:34:16;;;;;;;13.83;10.93;;;20.80;99.90;;;;;;5093393;28;20798;-82
2021/07/19 12:36:46;;;;;;;13.40;10.80;;;20.80;99.90;;;;;;5069333;28;20426;-82
2021/07/19 12:39:14;;;;;;;16.67;11.57;;;20.90;99.90;;;;;;5079999;28;20407;-82
2021/07/19 12:41:41;;;;;;;13.13;11.47;;;20.90;99.90;;;;;;5064923;28;20418;-81
2021/07/19 12:44:08;;;;;;;14.03;11.80;;;20.90;99.90;;;;;;5094057;28;20949;-81